Dades meteomassalio
Diari Summary for Marc 31, 2017 Units:  English    Metric   Both
« Previous Day
Next Day »
Diari Semanal Mensual Anual Personalitzat
  Maxima: Minima: Mijana:
Temperatura: TemperatureC °F 6.6 °F 13.3 °F
Rosada: DewpointC °F 3.2 °F 7.4 °F
Humitat: Humidity % 41 % 69 %
Velocitat del vent: WindSpeedKMH mph 0.0 mph 4.5 mph
Racha vent: WindSpeedGustKMH mph - -
Vent:- - ESE
Pressio: PressurehPa in 1015.5 in -
Pluja: 11.2 in    
Historical Graphs
 
 
Tabular Data for Marc 31, 2017
Time Temperature Dew Point Pressure Wind Wind Speed Wind Gust Humidity Rainfall Rate (Hourly) solar Conditions
TemperatureC °F DewpointC °F PressurehPa in Calm     Humidity % HourlyPrecipMM in SolarRadiationWatts/m^2 W/m2 Conditions
00:04 14.6 °F 3.9 °F 1022.2 in Calm     49 % 0.0 in 0.0 W/m2 CLR
00:09 14.4 °F 3.8 °F 1022.2 in Calm     49 % 0.0 in 0.0 W/m2 CLR
00:14 14.4 °F 3.5 °F 1022.2 in Calm     48 % 0.0 in 0.0 W/m2 CLR
00:19 14.2 °F 4.2 °F 1022.2 in Calm     51 % 0.0 in 0.0 W/m2 CLR
00:24 13.8 °F 3.8 °F 1022.2 in Calm     51 % 0.0 in 0.0 W/m2 CLR
00:29 13.7 °F 3.7 °F 1022.2 in Calm     51 % 0.0 in 0.0 W/m2 CLR
00:34 13.7 °F 3.5 °F 1022.2 in Calm     50 % 0.0 in 0.0 W/m2 CLR
00:39 13.6 °F 4.2 °F 1022.2 in Calm     53 % 0.0 in 0.0 W/m2 CLR
00:44 13.2 °F 4.1 °F 1022.2 in Calm     54 % 0.0 in 0.0 W/m2 CLR
00:49 12.9 °F 4.1 °F 1022.2 in Calm     55 % 0.0 in 0.0 W/m2 CLR
00:54 12.7 °F 3.6 °F 1022.2 in Calm     54 % 0.0 in 0.0 W/m2 CLR
00:59 12.7 °F 3.3 °F 1022.2 in Calm     53 % 0.0 in 0.0 W/m2 CLR
01:04 12.9 °F 3.3 °F 1022.2 in Calm     52 % 0.0 in 0.0 W/m2 CLR
01:09 12.8 °F 3.7 °F 1022.2 in Calm     54 % 0.0 in 0.0 W/m2 CLR
01:14 12.7 °F 3.7 °F 1022.2 in Calm     54 % 0.0 in 0.0 W/m2 CLR
01:19 12.5 °F 3.7 °F 1022.2 in Calm     55 % 0.0 in 0.0 W/m2 CLR
01:24 12.6 °F 4.0 °F 1022.2 in Calm     56 % 0.0 in 0.0 W/m2 CLR
01:29 12.6 °F 4.1 °F 1022.2 in Calm     56 % 0.0 in 0.0 W/m2 CLR
01:34 12.3 °F 3.8 °F 1022.2 in Calm     56 % 0.0 in 0.0 W/m2 CLR
01:39 11.8 °F 3.8 °F 1022.2 in Calm     58 % 0.0 in 0.0 W/m2 CLR
01:44 11.7 °F 3.2 °F 1022.2 in Calm     56 % 0.0 in 0.0 W/m2 CLR
01:49 12.1 °F 3.8 °F 1022.2 in Calm     57 % 0.0 in 0.0 W/m2 CLR
01:54 11.8 °F 4.1 °F 1022.2 in Calm     59 % 0.0 in 0.0 W/m2 CLR
01:59 11.4 °F 4.1 °F 1021.9 in Calm     61 % 0.0 in 0.0 W/m2 CLR
02:04 11.0 °F 4.2 °F 1021.9 in Calm     63 % 0.0 in 0.0 W/m2 CLR
02:09 10.7 °F 3.9 °F 1021.9 in Calm     63 % 0.0 in 0.0 W/m2 CLR
02:14 10.6 °F 4.3 °F 1021.9 in Calm     65 % 0.0 in 0.0 W/m2 CLR
02:19 10.1 °F 4.3 °F 1021.9 in Calm     67 % 0.0 in 0.0 W/m2 CLR
02:24 9.9 °F 4.3 °F 1021.9 in Calm     68 % 0.0 in 0.0 W/m2 CLR
02:29 9.8 °F 4.3 °F 1021.9 in Calm     69 % 0.0 in 0.0 W/m2 CLR
02:34 9.7 °F 4.4 °F 1021.9 in Calm     70 % 0.0 in 0.0 W/m2 CLR
02:39 9.5 °F 4.5 °F 1021.9 in Calm     71 % 0.0 in 0.0 W/m2 CLR
02:44 9.4 °F 4.2 °F 1021.9 in Calm     70 % 0.0 in 0.0 W/m2 CLR
02:49 9.4 °F 4.0 °F 1021.6 in Calm     69 % 0.0 in 0.0 W/m2 CLR
02:54 9.4 °F 4.1 °F 1021.9 in Calm     69 % 0.0 in 0.0 W/m2 CLR
02:59 9.4 °F 4.1 °F 1021.9 in Calm     69 % 0.0 in 0.0 W/m2 CLR
03:04 9.4 °F 4.2 °F 1021.9 in Calm     70 % 0.0 in 0.0 W/m2 CLR
03:09 9.4 °F 4.4 °F 1021.9 in Calm     71 % 0.0 in 0.0 W/m2 CLR
03:14 9.3 °F 4.1 °F 1021.9 in Calm     70 % 0.0 in 0.0 W/m2 CLR
03:19 9.3 °F 4.3 °F 1021.9 in Calm     71 % 0.0 in 0.0 W/m2 CLR
03:24 9.3 °F 4.3 °F 1021.9 in Calm     71 % 0.0 in 0.0 W/m2 CLR
03:25 9.3 °F 4.6 °F 1021.9 in Calm     72 % 0.0 in 0.0 W/m2 CLR
03:30 9.3 °F 4.3 °F 1021.9 in Calm     71 % 0.0 in 0.0 W/m2 CLR
03:35 9.2 °F 4.1 °F 1021.9 in Calm     70 % 0.0 in 0.0 W/m2 CLR
03:40 9.1 °F 4.5 °F 1021.9 in Calm     73 % 0.0 in 0.0 W/m2 CLR
03:45 9.0 °F 4.4 °F 1021.9 in Calm     73 % 0.0 in 0.0 W/m2 CLR
03:50 8.9 °F 4.2 °F 1021.9 in Calm     72 % 0.0 in 0.0 W/m2 CLR
03:55 8.9 °F 4.4 °F 1021.9 in Calm     73 % 0.0 in 0.0 W/m2 CLR
04:00 8.8 °F 4.7 °F 1021.9 in Calm     75 % 0.0 in 0.0 W/m2 CLR
04:05 8.8 °F 4.4 °F 1021.6 in Calm     74 % 0.0 in 0.0 W/m2 CLR
04:10 8.7 °F 4.6 °F 1021.6 in Calm     75 % 0.0 in 0.0 W/m2 CLR
04:15 8.7 °F 4.7 °F 1021.6 in Calm     76 % 0.0 in 0.0 W/m2 CLR
04:20 8.6 °F 4.8 °F 1021.6 in Calm     77 % 0.0 in 0.0 W/m2 CLR
04:25 8.5 °F 4.7 °F 1021.6 in Calm     77 % 0.0 in 0.0 W/m2 CLR
04:30 8.4 °F 4.7 °F 1021.6 in Calm     77 % 0.0 in 0.0 W/m2 CLR
04:35 8.4 °F 4.7 °F 1021.6 in Calm     77 % 0.0 in 0.0 W/m2 CLR
04:40 8.4 °F 4.6 °F 1021.6 in Calm     77 % 0.0 in 0.0 W/m2 CLR
04:45 8.3 °F 4.7 °F 1021.6 in Calm     78 % 0.0 in 0.0 W/m2 CLR
04:50 8.2 °F 4.6 °F 1021.6 in Calm     78 % 0.0 in 0.0 W/m2 CLR
04:55 8.2 °F 4.4 °F 1021.6 in Calm     77 % 0.0 in 0.0 W/m2 CLR
05:00 8.3 °F 4.7 °F 1021.6 in Calm     78 % 0.0 in 0.0 W/m2 CLR
05:05 8.2 °F 4.6 °F 1021.2 in Calm     78 % 0.0 in 0.0 W/m2 CLR
05:10 8.1 °F 4.5 °F 1021.2 in Calm     78 % 0.0 in 0.0 W/m2 CLR
05:15 7.9 °F 4.3 °F 1021.6 in Calm     78 % 0.0 in 0.0 W/m2 CLR
05:20 7.9 °F 4.3 °F 1021.6 in Calm     78 % 0.0 in 0.0 W/m2 CLR
05:25 8.0 °F 4.4 °F 1021.6 in SSW 3.7 mph   78 % 0.0 in 0.0 W/m2 CLR
05:30 8.1 °F 4.3 °F 1021.6 in Calm     77 % 0.0 in 0.0 W/m2 CLR
05:35 8.1 °F 4.3 °F 1021.6 in Calm     77 % 0.0 in 0.0 W/m2 CLR
05:40 8.1 °F 4.3 °F 1021.6 in Calm     77 % 0.0 in 0.0 W/m2 CLR
05:45 8.0 °F 4.2 °F 1021.6 in Calm     77 % 0.0 in 0.0 W/m2 CLR
05:50 7.8 °F 4.2 °F 1021.6 in Calm     78 % 0.0 in 0.0 W/m2 CLR
05:55 7.7 °F 4.3 °F 1021.6 in Calm     79 % 0.0 in 0.0 W/m2 CLR
06:00 7.6 °F 4.2 °F 1021.6 in Calm     79 % 0.0 in 0.0 W/m2 CLR
06:05 7.6 °F 4.2 °F 1021.6 in Calm     79 % 0.0 in 0.0 W/m2 CLR
06:10 7.6 °F 4.2 °F 1021.6 in Calm     79 % 0.0 in 0.0 W/m2 CLR
06:15 7.5 °F 4.1 °F 1021.6 in Calm     79 % 0.0 in 0.0 W/m2 CLR
06:20 7.4 °F 4.0 °F 1021.6 in Calm     79 % 0.0 in 0.0 W/m2 CLR
06:25 7.3 °F 4.1 °F 1021.6 in Calm     80 % 0.0 in 0.0 W/m2 CLR
06:30 7.2 °F 4.0 °F 1021.6 in Calm     80 % 0.0 in 0.0 W/m2 CLR
06:35 7.2 °F 3.9 °F 1021.6 in Calm     80 % 0.0 in 0.0 W/m2 CLR
06:40 7.3 °F 4.1 °F 1021.6 in Calm     80 % 0.0 in 0.0 W/m2 CLR
06:45 7.2 °F 4.0 °F 1021.6 in Calm     80 % 0.0 in 0.0 W/m2 CLR
06:50 7.1 °F 3.9 °F 1021.6 in Calm     80 % 0.0 in 0.0 W/m2 CLR
06:55 7.0 °F 3.9 °F 1021.6 in Calm     81 % 0.0 in 0.0 W/m2 CLR
07:00 6.9 °F 3.9 °F 1021.2 in Calm     81 % 0.0 in 0.0 W/m2 CLR
07:05 6.9 °F 3.8 °F 1021.6 in Calm     81 % 0.0 in 0.0 W/m2 CLR
07:10 6.9 °F 3.9 °F 1021.2 in Calm     81 % 0.0 in 0.0 W/m2 CLR
07:15 7.0 °F 3.9 °F 1021.6 in Calm     81 % 0.0 in 0.0 W/m2 CLR
07:20 7.0 °F 3.9 °F 1021.2 in Calm     81 % 0.0 in 0.0 W/m2 CLR
07:25 7.0 °F 3.9 °F 1021.2 in Calm     81 % 0.0 in 0.0 W/m2 CLR
07:30 6.9 °F 3.8 °F 1021.2 in Calm     81 % 0.0 in 0.0 W/m2 CLR
07:35 6.9 °F 3.8 °F 1021.2 in Calm     81 % 0.0 in 0.0 W/m2 OVC
07:40 6.9 °F 3.8 °F 1021.2 in Calm     81 % 0.0 in 0.0 W/m2 OVC
07:45 6.9 °F 4.0 °F 1021.6 in Calm     82 % 0.0 in 0.0 W/m2 OVC
07:50 6.8 °F 4.0 °F 1021.6 in Calm     82 % 0.0 in 5.0 W/m2 OVC
07:55 6.7 °F 3.9 °F 1021.6 in Calm     82 % 0.0 in 9.0 W/m2 BKN
08:01 6.7 °F 4.0 °F 1021.6 in Calm     83 % 0.0 in 12.0 W/m2 BKN
08:06 6.6 °F 3.9 °F 1021.6 in Calm     83 % 0.0 in 18.0 W/m2 BKN
08:11 6.6 °F 3.9 °F 1021.6 in Calm     83 % 0.0 in 21.0 W/m2 BKN
08:16 6.6 °F 3.9 °F 1021.6 in Calm     83 % 0.0 in 26.0 W/m2 BKN
08:21 6.7 °F 4.1 °F 1021.6 in Calm     83 % 0.0 in 32.0 W/m2 BKN
08:26 6.8 °F 4.2 °F 1021.9 in Calm     83 % 0.0 in 37.0 W/m2 BKN
08:31 6.9 °F 4.2 °F 1021.6 in Calm     83 % 0.0 in 44.0 W/m2 BKN
08:36 7.0 °F 4.3 °F 1021.6 in Calm     83 % 0.0 in 51.0 W/m2 SCT
08:41 7.1 °F 4.4 °F 1021.9 in Calm     83 % 0.0 in 56.0 W/m2 SCT
08:46 7.2 °F 4.4 °F 1021.9 in Calm     83 % 0.0 in 62.0 W/m2 SCT
08:51 7.3 °F 4.6 °F 1021.9 in Calm     83 % 0.0 in 67.0 W/m2 SCT
08:56 7.3 °F 4.6 °F 1021.9 in Calm     83 % 0.0 in 70.0 W/m2 FEW
08:57 7.3 °F 4.6 °F 1021.9 in Calm     83 % 0.0 in 72.0 W/m2 FEW
09:02 7.4 °F 4.7 °F 1021.9 in Calm     83 % 0.0 in 76.0 W/m2 FEW
09:07 7.5 °F 4.8 °F 1021.9 in Calm     83 % 0.0 in 100.0 W/m2 FEW
09:12 7.6 °F 4.9 °F 1021.9 in Calm     83 % 0.0 in 105.0 W/m2 CLR
09:17 7.8 °F 5.1 °F 1021.9 in Calm     83 % 0.0 in 216.0 W/m2 CLR
09:22 8.2 °F 5.4 °F 1021.9 in Calm     83 % 0.0 in 236.0 W/m2 CLR
09:27 8.6 °F 5.7 °F 1021.9 in Calm     82 % 0.0 in 257.0 W/m2 CLR
09:32 9.1 °F 5.8 °F 1021.9 in Calm     80 % 0.0 in 357.0 W/m2 CLR
09:37 9.7 °F 6.2 °F 1021.9 in Calm     79 % 0.0 in 330.0 W/m2 CLR
09:42 10.0 °F 5.9 °F 1021.9 in Calm     76 % 0.0 in 200.0 W/m2 CLR
09:47 10.3 °F 5.9 °F 1021.9 in Calm     74 % 0.0 in 188.0 W/m2 CLR
09:52 10.6 °F 6.1 °F 1021.9 in Calm     74 % 0.0 in 190.0 W/m2 CLR
09:57 10.7 °F 6.0 °F 1021.9 in Calm     73 % 0.0 in 193.0 W/m2 CLR
10:02 10.8 °F 5.8 °F 1021.9 in Calm     71 % 0.0 in 174.0 W/m2 CLR
10:07 10.9 °F 5.7 °F 1021.9 in Calm     70 % 0.0 in 153.0 W/m2 CLR
10:12 11.1 °F 5.8 °F 1021.9 in Calm     70 % 0.0 in 146.0 W/m2 CLR
10:17 11.3 °F 6.0 °F 1021.9 in Calm     70 % 0.0 in 146.0 W/m2 CLR
10:22 11.4 °F 5.9 °F 1021.9 in Calm     69 % 0.0 in 156.0 W/m2 CLR
10:27 11.6 °F 6.1 °F 1021.9 in Calm     69 % 0.0 in 183.0 W/m2 CLR
10:32 11.9 °F 6.2 °F 1021.9 in Calm     68 % 0.0 in 206.0 W/m2 CLR
10:37 12.1 °F 6.6 °F 1021.9 in Calm     69 % 0.0 in 211.0 W/m2 CLR
10:42 12.3 °F 6.4 °F 1021.9 in Calm     67 % 0.0 in 193.0 W/m2 CLR
10:47 12.6 °F 6.4 °F 1021.9 in Calm     66 % 0.0 in 190.0 W/m2 CLR
10:52 12.8 °F 6.3 °F 1021.9 in Calm     65 % 0.0 in 193.0 W/m2 CLR
10:57 12.8 °F 5.9 °F 1021.9 in Calm     63 % 0.0 in 276.0 W/m2 CLR
11:02 13.0 °F 5.9 °F 1021.9 in Calm     62 % 0.0 in 343.0 W/m2 CLR
11:07 13.2 °F 6.3 °F 1021.9 in Calm     63 % 0.0 in 325.0 W/m2 CLR
11:12 13.7 °F 6.7 °F 1021.9 in Calm     63 % 0.0 in 589.0 W/m2 CLR
11:17 14.2 °F 6.6 °F 1021.6 in Calm     60 % 0.0 in 575.0 W/m2 CLR
11:22 14.6 °F 7.2 °F 1021.6 in Calm     61 % 0.0 in 587.0 W/m2 CLR
11:28 14.9 °F 7.7 °F 1021.6 in Calm     62 % 0.0 in 599.0 W/m2 CLR
11:33 15.3 °F 7.8 °F 1021.2 in Calm     61 % 0.0 in 605.0 W/m2 CLR
11:38 15.7 °F 8.0 °F 1021.2 in Calm     60 % 0.0 in 654.0 W/m2 CLR
11:43 16.1 °F 8.1 °F 1020.9 in Calm     59 % 0.0 in 589.0 W/m2 CLR
11:48 16.3 °F 7.8 °F 1020.9 in Calm     57 % 0.0 in 399.0 W/m2 CLR
11:53 16.6 °F 8.0 °F 1020.5 in Calm     57 % 0.0 in 533.0 W/m2 CLR
11:58 16.9 °F 8.1 °F 1020.5 in Calm     56 % 0.0 in 717.0 W/m2 CLR
12:03 17.4 °F 8.3 °F 1020.5 in Calm     55 % 0.0 in 571.0 W/m2 CLR
12:08 17.8 °F 8.1 °F 1020.5 in ENE 9.3 mph 9.3 mph 53 % 0.0 in 635.0 W/m2 CLR
12:13 18.1 °F 7.8 °F 1020.5 in ESE 9.3 mph 9.3 mph 51 % 0.0 in 705.0 W/m2 CLR
12:18 18.2 °F 7.9 °F 1020.2 in Calm     51 % 0.0 in 766.0 W/m2 CLR
12:23 18.4 °F 8.1 °F 1020.2 in East 5.6 mph 5.6 mph 51 % 0.0 in 529.0 W/m2 CLR
12:28 18.4 °F 7.8 °F 1020.2 in East 3.2 mph 3.2 mph 50 % 0.0 in 422.0 W/m2 CLR
12:33 18.4 °F 8.1 °F 1020.2 in Calm     51 % 0.0 in 359.0 W/m2 CLR
12:38 18.7 °F 8.1 °F 1020.2 in Calm     50 % 0.0 in 522.0 W/m2 CLR
12:43 19.0 °F 8.6 °F 1019.9 in ENE 5.6 mph 5.6 mph 51 % 0.0 in 826.0 W/m2 CLR
12:48 19.3 °F 8.0 °F 1019.9 in SE 3.7 mph 3.7 mph 48 % 0.0 in 738.0 W/m2 CLR
12:53 19.5 °F 8.2 °F 1019.9 in ESE 7.4 mph 7.4 mph 48 % 0.0 in 689.0 W/m2 CLR
12:58 19.8 °F 8.8 °F 1019.5 in ENE 13.0 mph 13.0 mph 49 % 0.0 in 835.0 W/m2 CLR
13:03 20.2 °F 8.5 °F 1019.5 in NE 11.1 mph 11.1 mph 47 % 0.0 in 821.0 W/m2 CLR
13:08 20.3 °F 7.7 °F 1019.5 in ESE 11.1 mph 11.1 mph 44 % 0.0 in 854.0 W/m2 CLR
13:13 20.6 °F 8.6 °F 1019.2 in ENE 14.8 mph 14.8 mph 46 % 0.0 in 814.0 W/m2 CLR
13:18 20.8 °F 8.7 °F 1019.2 in NE 11.1 mph 11.1 mph 46 % 0.0 in 670.0 W/m2 CLR
13:23 21.1 °F 8.7 °F 1018.8 in ENE 14.8 mph 14.8 mph 45 % 0.0 in 786.0 W/m2 CLR
13:28 21.3 °F 8.5 °F 1018.8 in ENE 5.6 mph 5.6 mph 44 % 0.0 in 814.0 W/m2 CLR
13:33 21.5 °F 8.7 °F 1018.8 in ENE 13.0 mph 13.0 mph 44 % 0.0 in 816.0 W/m2 CLR
13:38 21.7 °F 8.2 °F 1018.8 in Calm     42 % 0.0 in 814.0 W/m2 CLR
13:43 21.7 °F 8.6 °F 1018.8 in ESE 9.3 mph 9.3 mph 43 % 0.0 in 814.0 W/m2 CLR
13:48 21.8 °F 8.7 °F 1018.5 in NE 7.4 mph 7.4 mph 43 % 0.0 in 814.0 W/m2 CLR
13:53 22.0 °F 9.2 °F 1018.5 in ENE 11.1 mph 11.1 mph 44 % 0.0 in 823.0 W/m2 CLR
13:58 22.1 °F 8.9 °F 1018.5 in NNE 5.6 mph 5.6 mph 43 % 0.0 in 816.0 W/m2 CLR
14:03 22.2 °F 8.7 °F 1018.5 in ENE 11.1 mph 11.1 mph 42 % 0.0 in 824.0 W/m2 CLR
14:08 22.3 °F 8.4 °F 1018.2 in ENE 9.7 mph 9.7 mph 41 % 0.0 in 882.0 W/m2 CLR
14:13 22.0 °F 8.5 °F 1018.2 in NE 14.8 mph 14.8 mph 42 % 0.0 in 858.0 W/m2 CLR
14:18 22.1 °F 8.9 °F 1017.8 in NE 14.5 mph 14.5 mph 43 % 0.0 in 809.0 W/m2 CLR
14:23 22.2 °F 8.7 °F 1017.8 in NE 17.7 mph 17.7 mph 42 % 0.0 in 803.0 W/m2 CLR
14:28 22.2 °F 9.1 °F 1017.8 in NE 12.9 mph 12.9 mph 43 % 0.0 in 814.0 W/m2 CLR
14:33 22.2 °F 9.0 °F 1017.5 in ENE 11.1 mph 11.1 mph 43 % 0.0 in 838.0 W/m2 CLR
14:38 22.2 °F 9.0 °F 1017.5 in NE 18.5 mph 18.5 mph 43 % 0.0 in 816.0 W/m2 CLR
14:43 22.2 °F 8.7 °F 1017.5 in ENE 16.7 mph 16.7 mph 42 % 0.0 in 735.0 W/m2 CLR
14:48 22.2 °F 8.7 °F 1017.5 in NE 16.7 mph 16.7 mph 42 % 0.0 in 202.0 W/m2 CLR
14:53 21.8 °F 8.7 °F 1017.5 in NNE 9.7 mph 9.7 mph 43 % 0.0 in 605.0 W/m2 CLR
14:58 21.8 °F 9.1 °F 1017.5 in NNE 3.7 mph   44 % 0.0 in 262.0 W/m2 CLR
15:03 21.8 °F 8.7 °F 1017.5 in East 8.0 mph 8.0 mph 43 % 0.0 in 269.0 W/m2 CLR
15:08 21.4 °F 9.3 °F 1017.2 in ESE 13.0 mph 13.0 mph 46 % 0.0 in 220.0 W/m2 CLR
15:13 21.2 °F 9.4 °F 1017.2 in ESE 18.5 mph 18.5 mph 47 % 0.0 in 543.0 W/m2 CLR
15:18 21.2 °F 9.4 °F 1017.2 in East 11.1 mph 11.1 mph 47 % 0.0 in 664.0 W/m2 CLR
15:23 20.9 °F 9.8 °F 1016.8 in ENE 18.5 mph 18.5 mph 49 % 0.0 in 320.0 W/m2 CLR
15:28 20.9 °F 9.8 °F 1016.8 in ESE 18.5 mph 18.5 mph 49 % 0.0 in 267.0 W/m2 CLR
15:33 21.2 °F 10.0 °F 1016.5 in East 18.5 mph 18.5 mph 49 % 0.0 in 812.0 W/m2 CLR
15:38 21.2 °F 8.8 °F 1016.1 in ESE 13.0 mph 13.0 mph 45 % 0.0 in 821.0 W/m2 CLR
15:43 21.4 °F 9.3 °F 1016.1 in ENE 9.3 mph 9.3 mph 46 % 0.0 in 874.0 W/m2 CLR
15:48 21.8 °F 9.9 °F 1015.8 in East 8.0 mph 8.0 mph 47 % 0.0 in 267.0 W/m2 CLR
15:53 22.1 °F 9.6 °F 1015.8 in ESE 11.1 mph 11.1 mph 45 % 0.0 in 429.0 W/m2 CLR
15:58 22.0 °F 9.5 °F 1015.8 in ENE 13.0 mph 13.0 mph 45 % 0.0 in 309.0 W/m2 CLR
16:03 21.6 °F 9.4 °F 1015.5 in NNE 16.7 mph 16.7 mph 46 % 0.0 in 130.0 W/m2 CLR
16:08 21.3 °F 9.5 °F 1015.8 in ENE 13.0 mph 13.0 mph 47 % 0.0 in 81.0 W/m2 CLR
16:13 21.0 °F 9.6 °F 1015.8 in NE 13.0 mph 13.0 mph 48 % 0.0 in 47.0 W/m2 FEW
16:18 20.8 °F 10.0 °F 1015.8 in NNE 11.3 mph 11.3 mph 50 % 0.0 in 16.0 W/m2 SCT
16:23 20.3 °F 9.8 °F 1016.1 in North 31.5 mph 31.5 mph 51 % 0.0 in 9.0 W/m2 BKN
16:28 19.6 °F 10.1 °F 1016.5 in NNE 40.7 mph 40.7 mph 54 % 0.0 in 7.0 W/m2 BKN
16:34 19.2 °F 9.4 °F 1016.8 in ENE 32.2 mph 32.2 mph 53 % 0.0 in 14.0 W/m2 BKN
16:39 17.9 °F 10.8 °F 1016.8 in ENE 29.0 mph 29.3 mph 63 % 2.0 in 56.0 W/m2 RA
16:44 15.3 °F 10.1 °F 1015.5 in ENE 35.2 mph 35.2 mph 71 % 8.4 in 98.0 W/m2 RA
16:49 14.7 °F 11.1 °F 1016.1 in NE 31.5 mph 31.5 mph 79 % 8.6 in 113.0 W/m2 RA
16:54 15.1 °F 11.4 °F 1016.5 in NE 29.6 mph 29.6 mph 79 % 8.6 in 258.0 W/m2 CLR
16:59 15.6 °F 12.0 °F 1016.5 in ENE 9.7 mph 9.7 mph 79 % 8.6 in 506.0 W/m2 CLR
17:00 15.9 °F 11.8 °F 1016.5 in East 22.2 mph 22.2 mph 77 % 8.6 in 489.0 W/m2 CLR
17:05 16.6 °F 12.1 °F 1016.1 in East 5.6 mph 5.6 mph 75 % 8.6 in 216.0 W/m2 CLR
17:10 16.7 °F 12.2 °F 1016.5 in Calm     75 % 8.6 in 162.0 W/m2 CLR
17:15 16.7 °F 11.8 °F 1016.5 in Calm     73 % 8.6 in 120.0 W/m2 CLR
17:20 16.6 °F 12.2 °F 1016.1 in Calm     75 % 8.6 in 86.0 W/m2 CLR
17:21 16.6 °F 12.2 °F 1016.1 in Calm     75 % 8.6 in 76.0 W/m2 CLR
17:26 16.5 °F 11.8 °F 1016.5 in Calm     74 % 8.6 in 40.0 W/m2 FEW
17:31 16.3 °F 11.6 °F 1016.5 in ENE 9.3 mph 9.3 mph 74 % 8.6 in 39.0 W/m2 SCT
17:36 16.1 °F 11.8 °F 1016.1 in South 24.1 mph 24.1 mph 76 % 8.1 in 63.0 W/m2 BKN
17:41 16.0 °F 11.9 °F 1016.5 in SSE 27.4 mph 27.4 mph 77 % 0.5 in 113.0 W/m2 SCT
17:46 16.1 °F 12.0 °F 1016.1 in SE 38.9 mph 38.9 mph 77 % 0.0 in 130.0 W/m2 CLR
17:51 15.9 °F 12.2 °F 1015.5 in SSW 35.2 mph 35.2 mph 79 % 0.0 in 156.0 W/m2 CLR
17:56 15.8 °F 12.0 °F 1015.8 in SSE 31.5 mph 31.5 mph 78 % 0.0 in 188.0 W/m2 CLR
18:01 16.0 °F 12.3 °F 1016.1 in South 22.2 mph 22.2 mph 79 % 0.0 in 272.0 W/m2 CLR
18:06 16.0 °F 12.3 °F 1015.5 in SSE 31.5 mph 31.5 mph 79 % 0.0 in 425.0 W/m2 CLR
18:11 16.3 °F 12.1 °F 1015.5 in SE 37.0 mph 37.0 mph 76 % 0.0 in 388.0 W/m2 CLR
18:16 16.3 °F 12.3 °F 1015.5 in ESE 11.1 mph 11.1 mph 77 % 0.0 in 355.0 W/m2 CLR
18:21 16.5 °F 12.4 °F 1015.8 in SSE 11.1 mph 11.1 mph 77 % 0.0 in 332.0 W/m2 CLR
18:26 16.7 °F 12.2 °F 1015.8 in Calm     75 % 0.0 in 44.0 W/m2 SCT
18:31 16.7 °F 12.3 °F 1015.8 in South 9.3 mph 9.3 mph 75 % 0.0 in 39.0 W/m2 BKN
18:36 16.6 °F 12.1 °F 1016.1 in Calm     75 % 0.0 in 30.0 W/m2 OVC
18:41 16.4 °F 12.2 °F 1016.8 in SW 12.9 mph 12.9 mph 76 % 0.0 in 14.0 W/m2 OVC
18:46 16.3 °F 12.3 °F 1016.8 in SSW 11.1 mph 11.1 mph 77 % 0.0 in 11.0 W/m2 OVC
18:51 16.3 °F 12.3 °F 1016.8 in West 20.4 mph 20.4 mph 77 % 0.0 in 14.0 W/m2 OVC
18:56 16.3 °F 12.5 °F 1016.5 in Calm     78 % 0.0 in 25.0 W/m2 OVC
19:01 16.3 °F 12.3 °F 1016.1 in Calm     77 % 0.0 in 25.0 W/m2 OVC
19:06 16.3 °F 12.5 °F 1015.8 in SE 4.8 mph 4.8 mph 78 % 0.0 in 37.0 W/m2 OVC
19:11 16.2 °F 12.5 °F 1016.1 in South 5.6 mph   79 % 0.0 in 74.0 W/m2 OVC
19:16 16.1 °F 12.6 °F 1015.8 in South 9.3 mph 9.3 mph 80 % 0.0 in 79.0 W/m2 OVC
19:21 16.0 °F 11.6 °F 1016.1 in South 7.4 mph 7.4 mph 75 % 0.0 in 69.0 W/m2 OVC
19:26 15.9 °F 11.3 °F 1015.8 in South 5.6 mph   74 % 0.0 in 47.0 W/m2 OVC
19:31 15.8 °F 11.3 °F 1015.8 in Calm     75 % 0.0 in 39.0 W/m2 OVC
19:36 15.4 °F 10.8 °F 1016.1 in SW 5.6 mph 5.6 mph 74 % 0.0 in 33.0 W/m2 OVC
19:41 15.3 °F 10.7 °F 1016.1 in Calm     74 % 0.0 in 65.0 W/m2 OVC
19:46 15.3 °F 10.9 °F 1016.5 in Calm     75 % 0.0 in 46.0 W/m2 OVC
19:51 15.2 °F 10.6 °F 1016.5 in Calm     74 % 0.0 in 26.0 W/m2 OVC
19:56 15.1 °F 10.1 °F 1016.5 in Calm     72 % 0.0 in 18.0 W/m2 OVC
20:01 15.1 °F 10.1 °F 1016.5 in Calm     72 % 0.0 in 16.0 W/m2 OVC
20:06 15.0 °F 10.0 °F 1016.5 in Calm     72 % 0.0 in 9.0 W/m2 OVC
20:11 14.9 °F 9.9 °F 1016.5 in Calm     72 % 0.0 in 7.0 W/m2 OVC
20:16 14.8 °F 10.1 °F 1016.1 in Calm     73 % 0.0 in 5.0 W/m2 OVC
20:21 14.7 °F 9.7 °F 1016.5 in Calm     72 % 0.0 in 0.0 W/m2 OVC
20:27 14.6 °F 9.8 °F 1016.5 in Calm     73 % 0.0 in 0.0 W/m2 OVC
20:32 14.6 °F 9.8 °F 1016.5 in Calm     73 % 0.0 in 0.0 W/m2 OVC
20:37 14.5 °F 9.9 °F 1016.5 in Calm     74 % 0.0 in 0.0 W/m2 CLR
20:42 14.4 °F 10.4 °F 1016.5 in Calm     77 % 0.0 in 0.0 W/m2 CLR
20:47 14.2 °F 10.4 °F 1016.5 in Calm     78 % 0.0 in 0.0 W/m2 CLR
20:52 14.1 °F 10.4 °F 1016.5 in Calm     79 % 0.0 in 0.0 W/m2 CLR
20:57 13.9 °F 10.3 °F 1016.5 in Calm     79 % 0.0 in 0.0 W/m2 CLR
21:02 13.8 °F 10.3 °F 1016.8 in Calm     79 % 0.0 in 0.0 W/m2 CLR
21:07 13.7 °F 10.7 °F 1017.2 in ENE 1.6 mph   82 % 0.0 in 0.0 W/m2 CLR
21:12 13.6 °F 10.7 °F 1016.8 in Calm     83 % 0.5 in 0.0 W/m2 RA
21:17 13.5 °F 10.8 °F 1016.5 in Calm     84 % 0.5 in 0.0 W/m2
21:22 13.4 °F 10.7 °F 1016.5 in Calm     84 % 0.5 in 0.0 W/m2 CLR
21:27 13.2 °F 10.8 °F 1016.8 in Calm     85 % 0.5 in 0.0 W/m2 CLR
21:32 13.2 °F 10.7 °F 1016.8 in Calm     85 % 0.5 in 0.0 W/m2 CLR
21:37 13.1 °F 10.7 °F 1016.8 in Calm     85 % 0.5 in 0.0 W/m2 CLR
21:42 12.9 °F 10.7 °F 1017.2 in Calm     86 % 0.5 in 0.0 W/m2 CLR
21:47 12.9 °F 10.6 °F 1016.8 in Calm     86 % 0.5 in 0.0 W/m2 CLR
21:52 12.8 °F 10.6 °F 1016.8 in Calm     86 % 0.5 in 0.0 W/m2 RA
21:57 12.8 °F 10.6 °F 1017.2 in Calm     86 % 0.5 in 0.0 W/m2 CLR
22:02 12.8 °F 10.7 °F 1017.2 in Calm     87 % 0.5 in 0.0 W/m2 CLR
22:07 12.7 °F 10.6 °F 1017.2 in Calm     87 % 0.5 in 0.0 W/m2 CLR
22:12 12.7 °F 10.7 °F 1016.8 in Calm     88 % 0.3 in 0.0 W/m2 CLR
22:17 12.7 °F 10.7 °F 1016.8 in Calm     88 % 0.3 in 0.0 W/m2 CLR
22:22 12.7 °F 10.9 °F 1017.2 in Calm     89 % 0.3 in 0.0 W/m2 CLR
22:27 12.9 °F 11.3 °F 1017.8 in WNW 16.7 mph 16.7 mph 90 % 0.3 in 0.0 W/m2 CLR
22:32 13.4 °F 11.9 °F 1018.2 in WSW 32.2 mph 32.2 mph 91 % 0.5 in 0.0 W/m2 RA
22:37 13.2 °F 11.2 °F 1018.2 in West 22.2 mph 22.2 mph 88 % 2.0 in 0.0 W/m2 RA
22:42 12.9 °F 10.8 °F 1017.8 in Calm     87 % 2.3 in 0.0 W/m2 RA
22:47 12.7 °F 10.4 °F 1017.8 in Calm     86 % 2.3 in 0.0 W/m2 CLR
22:52 12.7 °F 9.7 °F 1017.5 in Calm     82 % 2.0 in 0.0 W/m2 CLR
22:57 12.7 °F 9.8 °F 1017.8 in Calm     83 % 2.0 in 0.0 W/m2 CLR
23:02 12.3 °F 9.5 °F 1017.8 in Calm     83 % 2.0 in 0.0 W/m2 CLR
23:07 12.2 °F 9.8 °F 1017.8 in Calm     85 % 2.0 in 0.0 W/m2 CLR
23:12 12.5 °F 10.7 °F 1018.2 in NW 24.1 mph 24.1 mph 89 % 2.0 in 0.0 W/m2 CLR
23:17 12.7 °F 11.1 °F 1018.2 in NNW 13.0 mph 13.0 mph 90 % 2.0 in 0.0 W/m2 CLR
23:22 12.6 °F 11.0 °F 1017.8 in Calm     90 % 2.0 in 0.0 W/m2 CLR
23:27 12.6 °F 10.9 °F 1018.2 in Calm     90 % 2.0 in 0.0 W/m2 CLR
23:32 12.1 °F 10.3 °F 1018.2 in Calm     89 % 1.8 in 0.0 W/m2 CLR
23:37 11.9 °F 10.3 °F 1017.8 in Calm     90 % 0.3 in 0.0 W/m2 CLR
23:42 11.8 °F 10.2 °F 1017.8 in Calm     90 % 0.0 in 0.0 W/m2 CLR
23:47 11.8 °F 10.3 °F 1017.5 in Calm     91 % 0.0 in 0.0 W/m2 CLR
23:52 11.7 °F 10.2 °F 1017.8 in Calm     91 % 0.0 in 0.0 W/m2 CLR
23:57 11.7 °F 10.3 °F 1017.8 in Calm     91 % 0.0 in 0.0 W/m2 CLR
Lo Temps de Massalio
Compliments of Weather Underground - 1.25 mb